This is the latest recevied weather packets stored in our database for station/object 9W2CEW-1. If no packets are shown the sender has not sent any weather packets the latest 10 day(s).
| Time | Temp. | Humidity | Pressure | Rain* | Wind** | Luminosity | Snow |
|---|---|---|---|---|---|---|---|
| 1787920712 | 35.56° C | 46% | 1004.4 hPa | - | - | - | - |
| 1787920288 | 37.78° C | 40% | 1003.8 hPa | - | - | - | - |
| 1787919818 | 36.67° C | 43% | 1004.2 hPa | - | - | - | - |
| 1787918912 | 35° C | 48% | 1004 hPa | - | - | - | - |
| 1787918012 | 35.56° C | 47% | 1003.8 hPa | - | - | - | - |
| 1787917112 | 36.11° C | 45% | 1003.5 hPa | - | - | - | - |
| 1787916212 | 36.11° C | 44% | 1003.2 hPa | - | - | - | - |
| 1787915312 | 36.11° C | 45% | 1002.9 hPa | - | - | - | - |
| 1787914412 | 36.11° C | 43% | 1003 hPa | - | - | - | - |
| 1787913511 | 36.11° C | 43% | 1002.7 hPa | - | - | - | - |
| 1787912611 | 36.67° C | 42% | 1002.5 hPa | - | - | - | - |
| 1787911711 | 36.11° C | 42% | 1002.4 hPa | - | - | - | - |
| 1787910811 | 36.11° C | 42% | 1002.2 hPa | - | - | - | - |
| 1787909911 | 36.67° C | 40% | 1002.3 hPa | - | - | - | - |
| 1787909011 | 37.22° C | 41% | 1002.4 hPa | - | - | - | - |
| 1787908111 | 37.22° C | 41% | 1002.6 hPa | - | - | - | - |
| 1787907211 | 36.67° C | 42% | 1002.4 hPa | - | - | - | - |
| 1787906311 | 36.67° C | 42% | 1002.5 hPa | - | - | - | - |
| 1787905411 | 37.78° C | 41% | 1002.6 hPa | - | - | - | - |
| 1787904512 | 37.78° C | 41% | 1002.8 hPa | - | - | - | - |
| 1787903612 | 37.78° C | 41% | 1002.9 hPa | - | - | - | - |
| 1787902712 | 38.33° C | 39% | 1003.2 hPa | - | - | - | - |
| 1787901812 | 40° C | 36% | 1003.2 hPa | - | - | - | - |
| 1787900912 | 38.89° C | 38% | 1003.5 hPa | - | - | - | - |
| 1787900012 | 37.78° C | 40% | 1003.8 hPa | - | - | - | - |
* Rain since midnight (hover to see other rain measurements)
** Current wind speed in m/s (hover to see current wind gust speed)